sensor_id;sensor_type;location;lat;lon;timestamp;P1;durP1;ratioP1;P2;durP2;ratioP2
76196;SDS011;64974;53.144;17.962;2023-04-22T00:00:46;4.28;;;2.40;;
76196;SDS011;64974;53.144;17.962;2023-04-22T00:03:12;7.03;;;2.75;;
76196;SDS011;64974;53.144;17.962;2023-04-22T00:05:38;6.90;;;2.70;;
76196;SDS011;64974;53.144;17.962;2023-04-22T00:08:03;6.20;;;2.85;;
76196;SDS011;64974;53.144;17.962;2023-04-22T00:10:29;5.68;;;2.58;;
76196;SDS011;64974;53.144;17.962;2023-04-22T00:12:54;6.83;;;3.00;;
76196;SDS011;64974;53.144;17.962;2023-04-22T00:15:19;7.35;;;2.97;;
76196;SDS011;64974;53.144;17.962;2023-04-22T00:17:48;5.10;;;2.53;;
76196;SDS011;64974;53.144;17.962;2023-04-22T00:20:14;8.95;;;3.03;;
76196;SDS011;64974;53.144;17.962;2023-04-22T00:22:40;7.68;;;3.10;;
76196;SDS011;64974;53.144;17.962;2023-04-22T00:25:05;7.72;;;3.13;;
76196;SDS011;64974;53.144;17.962;2023-04-22T00:27:31;9.80;;;3.47;;
76196;SDS011;64974;53.144;17.962;2023-04-22T00:29:56;7.10;;;3.58;;
76196;SDS011;64974;53.144;17.962;2023-04-22T00:32:22;8.90;;;3.37;;
76196;SDS011;64974;53.144;17.962;2023-04-22T00:34:47;7.73;;;3.27;;
76196;SDS011;64974;53.144;17.962;2023-04-22T00:37:13;8.85;;;3.08;;
76196;SDS011;64974;53.144;17.962;2023-04-22T00:39:39;8.02;;;3.13;;
76196;SDS011;64974;53.144;17.962;2023-04-22T00:42:04;6.35;;;3.22;;
76196;SDS011;64974;53.144;17.962;2023-04-22T00:46:56;6.57;;;2.95;;
76196;SDS011;64974;53.144;17.962;2023-04-22T00:49:21;7.80;;;3.03;;
76196;SDS011;64974;53.144;17.962;2023-04-22T00:51:46;8.00;;;3.40;;
76196;SDS011;64974;53.144;17.962;2023-04-22T00:54:11;7.35;;;3.10;;
76196;SDS011;64974;53.144;17.962;2023-04-22T00:56:37;9.82;;;3.85;;
76196;SDS011;64974;53.144;17.962;2023-04-22T00:59:03;9.15;;;3.67;;
76196;SDS011;64974;53.144;17.962;2023-04-22T01:01:29;6.13;;;2.88;;
76196;SDS011;64974;53.144;17.962;2023-04-22T01:03:54;8.23;;;3.58;;
76196;SDS011;64974;53.144;17.962;2023-04-22T01:06:21;8.00;;;3.75;;
76196;SDS011;64974;53.144;17.962;2023-04-22T01:08:46;9.43;;;3.65;;
76196;SDS011;64974;53.144;17.962;2023-04-22T01:11:12;7.95;;;3.33;;
76196;SDS011;64974;53.144;17.962;2023-04-22T01:13:37;8.32;;;3.67;;
76196;SDS011;64974;53.144;17.962;2023-04-22T01:16:03;7.43;;;3.63;;
76196;SDS011;64974;53.144;17.962;2023-04-22T01:18:30;8.50;;;3.30;;
76196;SDS011;64974;53.144;17.962;2023-04-22T01:23:21;9.13;;;3.57;;
76196;SDS011;64974;53.144;17.962;2023-04-22T01:25:47;6.30;;;3.17;;
76196;SDS011;64974;53.144;17.962;2023-04-22T01:28:13;6.38;;;3.38;;
76196;SDS011;64974;53.144;17.962;2023-04-22T01:30:40;8.13;;;4.00;;
76196;SDS011;64974;53.144;17.962;2023-04-22T01:33:06;8.82;;;3.55;;
76196;SDS011;64974;53.144;17.962;2023-04-22T01:35:31;8.05;;;3.83;;
76196;SDS011;64974;53.144;17.962;2023-04-22T01:38:01;9.23;;;3.25;;
76196;SDS011;64974;53.144;17.962;2023-04-22T01:40:27;7.75;;;3.38;;
76196;SDS011;64974;53.144;17.962;2023-04-22T01:42:55;6.28;;;3.05;;
76196;SDS011;64974;53.144;17.962;2023-04-22T01:45:20;5.80;;;2.63;;
76196;SDS011;64974;53.144;17.962;2023-04-22T01:47:46;5.43;;;2.40;;
76196;SDS011;64974;53.144;17.962;2023-04-22T01:50:11;9.07;;;2.33;;
76196;SDS011;64974;53.144;17.962;2023-04-22T01:52:38;5.47;;;2.83;;
76196;SDS011;64974;53.144;17.962;2023-04-22T01:55:03;5.28;;;2.55;;
76196;SDS011;64974;53.144;17.962;2023-04-22T01:57:29;5.75;;;2.65;;
76196;SDS011;64974;53.144;17.962;2023-04-22T01:59:55;6.07;;;2.33;;
76196;SDS011;64974;53.144;17.962;2023-04-22T02:02:20;5.03;;;2.35;;
76196;SDS011;64974;53.144;17.962;2023-04-22T02:04:45;6.37;;;2.80;;
76196;SDS011;64974;53.144;17.962;2023-04-22T02:07:11;5.90;;;3.05;;
76196;SDS011;64974;53.144;17.962;2023-04-22T02:09:36;5.63;;;2.35;;
76196;SDS011;64974;53.144;17.962;2023-04-22T02:12:01;5.70;;;2.40;;
76196;SDS011;64974;53.144;17.962;2023-04-22T02:14:27;5.13;;;2.58;;
76196;SDS011;64974;53.144;17.962;2023-04-22T02:16:52;5.05;;;2.40;;
76196;SDS011;64974;53.144;17.962;2023-04-22T02:19:18;7.55;;;2.70;;
76196;SDS011;64974;53.144;17.962;2023-04-22T02:21:43;3.92;;;2.42;;
76196;SDS011;64974;53.144;17.962;2023-04-22T02:24:08;5.77;;;2.50;;
76196;SDS011;64974;53.144;17.962;2023-04-22T02:26:34;4.93;;;2.53;;
76196;SDS011;64974;53.144;17.962;2023-04-22T02:28:59;4.40;;;2.40;;
76196;SDS011;64974;53.144;17.962;2023-04-22T02:31:25;6.57;;;2.60;;
76196;SDS011;64974;53.144;17.962;2023-04-22T02:33:50;6.97;;;2.87;;
76196;SDS011;64974;53.144;17.962;2023-04-22T02:36:15;4.50;;;2.53;;
76196;SDS011;64974;53.144;17.962;2023-04-22T02:38:41;4.70;;;2.13;;
76196;SDS011;64974;53.144;17.962;2023-04-22T02:41:06;6.32;;;2.53;;
76196;SDS011;64974;53.144;17.962;2023-04-22T02:43:31;5.17;;;2.73;;
76196;SDS011;64974;53.144;17.962;2023-04-22T02:45:56;7.05;;;2.72;;
76196;SDS011;64974;53.144;17.962;2023-04-22T02:48:22;7.57;;;2.63;;
76196;SDS011;64974;53.144;17.962;2023-04-22T02:50:47;5.03;;;2.47;;
76196;SDS011;64974;53.144;17.962;2023-04-22T02:53:12;6.00;;;3.17;;
76196;SDS011;64974;53.144;17.962;2023-04-22T02:55:38;7.60;;;3.13;;
76196;SDS011;64974;53.144;17.962;2023-04-22T02:58:05;6.18;;;3.22;;
76196;SDS011;64974;53.144;17.962;2023-04-22T03:00:30;6.78;;;2.90;;
76196;SDS011;64974;53.144;17.962;2023-04-22T03:02:55;6.30;;;2.95;;
76196;SDS011;64974;53.144;17.962;2023-04-22T03:05:21;6.00;;;3.45;;
76196;SDS011;64974;53.144;17.962;2023-04-22T03:07:46;6.10;;;3.38;;
76196;SDS011;64974;53.144;17.962;2023-04-22T03:10:13;6.30;;;3.05;;
76196;SDS011;64974;53.144;17.962;2023-04-22T03:12:38;5.90;;;2.92;;
76196;SDS011;64974;53.144;17.962;2023-04-22T03:15:04;5.90;;;3.17;;
76196;SDS011;64974;53.144;17.962;2023-04-22T03:17:29;6.97;;;3.03;;
76196;SDS011;64974;53.144;17.962;2023-04-22T03:19:55;7.20;;;3.15;;
76196;SDS011;64974;53.144;17.962;2023-04-22T03:22:20;9.05;;;3.80;;
76196;SDS011;64974;53.144;17.962;2023-04-22T03:24:45;6.95;;;3.22;;
76196;SDS011;64974;53.144;17.962;2023-04-22T03:27:11;7.87;;;3.37;;
76196;SDS011;64974;53.144;17.962;2023-04-22T03:29:36;9.57;;;3.88;;
76196;SDS011;64974;53.144;17.962;2023-04-22T03:32:02;9.10;;;3.38;;
76196;SDS011;64974;53.144;17.962;2023-04-22T03:34:27;7.80;;;3.30;;
76196;SDS011;64974;53.144;17.962;2023-04-22T03:36:52;7.40;;;4.00;;
76196;SDS011;64974;53.144;17.962;2023-04-22T03:39:17;9.60;;;4.27;;
76196;SDS011;64974;53.144;17.962;2023-04-22T03:41:43;6.87;;;3.27;;
76196;SDS011;64974;53.144;17.962;2023-04-22T03:44:08;7.10;;;3.58;;
76196;SDS011;64974;53.144;17.962;2023-04-22T03:46:34;8.43;;;3.92;;
76196;SDS011;64974;53.144;17.962;2023-04-22T03:48:59;8.15;;;3.67;;
76196;SDS011;64974;53.144;17.962;2023-04-22T03:51:25;9.70;;;4.05;;
76196;SDS011;64974;53.144;17.962;2023-04-22T03:53:50;7.68;;;3.58;;
76196;SDS011;64974;53.144;17.962;2023-04-22T03:56:15;10.88;;;4.50;;
76196;SDS011;64974;53.144;17.962;2023-04-22T03:58:41;9.50;;;4.53;;
76196;SDS011;64974;53.144;17.962;2023-04-22T04:01:06;11.27;;;4.32;;
76196;SDS011;64974;53.144;17.962;2023-04-22T04:03:32;8.90;;;3.85;;
76196;SDS011;64974;53.144;17.962;2023-04-22T04:05:57;10.45;;;4.43;;
76196;SDS011;64974;53.144;17.962;2023-04-22T04:08:22;8.65;;;4.05;;
76196;SDS011;64974;53.144;17.962;2023-04-22T04:10:47;7.63;;;4.10;;
76196;SDS011;64974;53.144;17.962;2023-04-22T04:13:13;10.50;;;4.90;;
76196;SDS011;64974;53.144;17.962;2023-04-22T04:15:38;10.10;;;4.73;;
76196;SDS011;64974;53.144;17.962;2023-04-22T04:18:03;9.27;;;5.00;;
76196;SDS011;64974;53.144;17.962;2023-04-22T04:20:29;9.23;;;4.18;;
76196;SDS011;64974;53.144;17.962;2023-04-22T04:22:54;7.03;;;4.07;;
76196;SDS011;64974;53.144;17.962;2023-04-22T04:25:20;12.13;;;3.63;;
76196;SDS011;64974;53.144;17.962;2023-04-22T04:27:46;7.80;;;3.47;;
76196;SDS011;64974;53.144;17.962;2023-04-22T04:30:12;7.50;;;3.40;;
76196;SDS011;64974;53.144;17.962;2023-04-22T04:32:38;6.70;;;3.47;;
76196;SDS011;64974;53.144;17.962;2023-04-22T04:35:04;7.82;;;4.68;;
76196;SDS011;64974;53.144;17.962;2023-04-22T04:37:30;6.45;;;3.90;;
76196;SDS011;64974;53.144;17.962;2023-04-22T04:39:55;8.38;;;4.47;;
76196;SDS011;64974;53.144;17.962;2023-04-22T04:42:23;8.02;;;4.03;;
76196;SDS011;64974;53.144;17.962;2023-04-22T04:44:49;7.45;;;4.45;;
76196;SDS011;64974;53.144;17.962;2023-04-22T04:49:40;6.13;;;3.23;;
76196;SDS011;64974;53.144;17.962;2023-04-22T04:52:06;5.97;;;3.47;;
76196;SDS011;64974;53.144;17.962;2023-04-22T04:54:34;9.30;;;4.45;;
76196;SDS011;64974;53.144;17.962;2023-04-22T04:56:59;11.27;;;4.50;;
76196;SDS011;64974;53.144;17.962;2023-04-22T04:59:26;13.05;;;5.50;;
76196;SDS011;64974;53.144;17.962;2023-04-22T05:01:52;9.35;;;4.75;;
76196;SDS011;64974;53.144;17.962;2023-04-22T05:04:18;8.48;;;4.55;;
76196;SDS011;64974;53.144;17.962;2023-04-22T05:06:43;7.85;;;4.35;;
76196;SDS011;64974;53.144;17.962;2023-04-22T05:09:08;10.57;;;4.82;;
76196;SDS011;64974;53.144;17.962;2023-04-22T05:11:34;9.98;;;4.95;;
76196;SDS011;64974;53.144;17.962;2023-04-22T05:13:59;9.02;;;4.75;;
76196;SDS011;64974;53.144;17.962;2023-04-22T05:16:25;9.40;;;4.67;;
76196;SDS011;64974;53.144;17.962;2023-04-22T05:18:50;11.80;;;5.47;;
76196;SDS011;64974;53.144;17.962;2023-04-22T05:21:15;10.95;;;5.05;;
76196;SDS011;64974;53.144;17.962;2023-04-22T05:23:41;10.52;;;5.60;;
76196;SDS011;64974;53.144;17.962;2023-04-22T05:26:06;12.47;;;5.53;;
76196;SDS011;64974;53.144;17.962;2023-04-22T05:28:31;11.25;;;5.80;;
76196;SDS011;64974;53.144;17.962;2023-04-22T05:30:57;10.38;;;5.60;;
76196;SDS011;64974;53.144;17.962;2023-04-22T05:33:22;9.95;;;5.45;;
76196;SDS011;64974;53.144;17.962;2023-04-22T05:35:47;11.15;;;5.65;;
76196;SDS011;64974;53.144;17.962;2023-04-22T05:38:12;11.15;;;5.45;;
76196;SDS011;64974;53.144;17.962;2023-04-22T05:40:38;10.80;;;5.37;;
76196;SDS011;64974;53.144;17.962;2023-04-22T05:43:04;9.27;;;5.28;;
76196;SDS011;64974;53.144;17.962;2023-04-22T05:45:30;10.05;;;5.60;;
76196;SDS011;64974;53.144;17.962;2023-04-22T05:47:55;8.68;;;4.80;;
76196;SDS011;64974;53.144;17.962;2023-04-22T05:50:20;10.85;;;4.72;;
76196;SDS011;64974;53.144;17.962;2023-04-22T05:52:46;10.43;;;4.65;;
76196;SDS011;64974;53.144;17.962;2023-04-22T05:55:11;13.52;;;4.72;;
76196;SDS011;64974;53.144;17.962;2023-04-22T05:57:37;6.85;;;3.88;;
76196;SDS011;64974;53.144;17.962;2023-04-22T06:00:03;7.60;;;4.75;;
76196;SDS011;64974;53.144;17.962;2023-04-22T06:02:29;7.90;;;4.50;;
76196;SDS011;64974;53.144;17.962;2023-04-22T06:04:54;9.40;;;4.18;;
76196;SDS011;64974;53.144;17.962;2023-04-22T06:07:20;7.07;;;3.97;;
76196;SDS011;64974;53.144;17.962;2023-04-22T06:09:45;8.10;;;3.83;;
76196;SDS011;64974;53.144;17.962;2023-04-22T06:12:10;9.40;;;4.63;;
76196;SDS011;64974;53.144;17.962;2023-04-22T06:14:36;8.18;;;4.00;;
76196;SDS011;64974;53.144;17.962;2023-04-22T06:17:01;6.90;;;3.70;;
76196;SDS011;64974;53.144;17.962;2023-04-22T06:19:27;8.95;;;4.05;;
76196;SDS011;64974;53.144;17.962;2023-04-22T06:21:52;5.68;;;3.30;;
76196;SDS011;64974;53.144;17.962;2023-04-22T06:24:18;7.77;;;3.47;;
76196;SDS011;64974;53.144;17.962;2023-04-22T06:26:43;9.45;;;3.65;;
76196;SDS011;64974;53.144;17.962;2023-04-22T06:29:08;6.70;;;3.70;;
76196;SDS011;64974;53.144;17.962;2023-04-22T06:31:34;8.40;;;4.05;;
76196;SDS011;64974;53.144;17.962;2023-04-22T06:33:59;7.07;;;3.63;;
76196;SDS011;64974;53.144;17.962;2023-04-22T06:36:25;5.70;;;3.30;;
76196;SDS011;64974;53.144;17.962;2023-04-22T06:38:51;7.25;;;2.95;;
76196;SDS011;64974;53.144;17.962;2023-04-22T06:41:17;4.80;;;2.70;;
76196;SDS011;64974;53.144;17.962;2023-04-22T06:43:42;4.93;;;2.77;;
76196;SDS011;64974;53.144;17.962;2023-04-22T06:46:07;4.72;;;2.42;;
76196;SDS011;64974;53.144;17.962;2023-04-22T06:48:33;5.28;;;2.67;;
76196;SDS011;64974;53.144;17.962;2023-04-22T06:50:58;4.45;;;2.33;;
76196;SDS011;64974;53.144;17.962;2023-04-22T06:53:25;3.92;;;2.15;;
76196;SDS011;64974;53.144;17.962;2023-04-22T06:55:50;5.90;;;2.38;;
76196;SDS011;64974;53.144;17.962;2023-04-22T06:58:17;5.00;;;2.47;;
76196;SDS011;64974;53.144;17.962;2023-04-22T07:00:42;6.13;;;2.50;;
76196;SDS011;64974;53.144;17.962;2023-04-22T07:03:08;5.40;;;2.33;;
76196;SDS011;64974;53.144;17.962;2023-04-22T07:05:33;4.97;;;2.17;;
76196;SDS011;64974;53.144;17.962;2023-04-22T07:07:58;4.85;;;2.40;;
76196;SDS011;64974;53.144;17.962;2023-04-22T07:10:24;6.50;;;3.15;;
76196;SDS011;64974;53.144;17.962;2023-04-22T07:12:49;5.00;;;2.30;;
76196;SDS011;64974;53.144;17.962;2023-04-22T07:15:15;5.25;;;2.45;;
76196;SDS011;64974;53.144;17.962;2023-04-22T07:17:40;6.40;;;2.63;;
76196;SDS011;64974;53.144;17.962;2023-04-22T07:20:06;8.15;;;2.30;;
76196;SDS011;64974;53.144;17.962;2023-04-22T07:22:31;3.83;;;1.90;;
76196;SDS011;64974;53.144;17.962;2023-04-22T07:24:57;4.53;;;1.95;;
76196;SDS011;64974;53.144;17.962;2023-04-22T07:27:23;4.47;;;1.90;;
76196;SDS011;64974;53.144;17.962;2023-04-22T07:29:49;4.00;;;1.63;;
76196;SDS011;64974;53.144;17.962;2023-04-22T07:32:14;11.88;;;2.30;;
76196;SDS011;64974;53.144;17.962;2023-04-22T07:34:39;5.10;;;1.65;;
76196;SDS011;64974;53.144;17.962;2023-04-22T07:37:05;4.47;;;1.87;;
76196;SDS011;64974;53.144;17.962;2023-04-22T07:39:31;4.28;;;1.63;;
76196;SDS011;64974;53.144;17.962;2023-04-22T07:41:56;3.70;;;1.92;;
76196;SDS011;64974;53.144;17.962;2023-04-22T07:44:22;2.97;;;1.65;;
76196;SDS011;64974;53.144;17.962;2023-04-22T07:46:48;8.40;;;1.80;;
76196;SDS011;64974;53.144;17.962;2023-04-22T07:49:14;5.03;;;2.00;;
76196;SDS011;64974;53.144;17.962;2023-04-22T07:51:40;3.90;;;1.90;;
76196;SDS011;64974;53.144;17.962;2023-04-22T07:54:06;9.30;;;1.98;;
76196;SDS011;64974;53.144;17.962;2023-04-22T07:56:32;4.93;;;1.67;;
76196;SDS011;64974;53.144;17.962;2023-04-22T07:58:57;5.07;;;1.70;;
76196;SDS011;64974;53.144;17.962;2023-04-22T08:01:22;4.60;;;2.00;;
76196;SDS011;64974;53.144;17.962;2023-04-22T08:03:48;4.97;;;1.85;;
76196;SDS011;64974;53.144;17.962;2023-04-22T08:06:13;4.35;;;2.20;;
76196;SDS011;64974;53.144;17.962;2023-04-22T08:08:39;5.97;;;1.70;;
76196;SDS011;64974;53.144;17.962;2023-04-22T08:11:04;8.77;;;1.80;;
76196;SDS011;64974;53.144;17.962;2023-04-22T08:13:31;5.32;;;1.67;;
76196;SDS011;64974;53.144;17.962;2023-04-22T08:15:56;7.78;;;1.65;;
76196;SDS011;64974;53.144;17.962;2023-04-22T08:18:21;6.82;;;1.63;;
76196;SDS011;64974;53.144;17.962;2023-04-22T08:20:47;2.92;;;1.90;;
76196;SDS011;64974;53.144;17.962;2023-04-22T08:23:14;3.75;;;1.42;;
76196;SDS011;64974;53.144;17.962;2023-04-22T08:25:39;3.78;;;1.60;;
76196;SDS011;64974;53.144;17.962;2023-04-22T08:28:04;6.13;;;1.70;;
76196;SDS011;64974;53.144;17.962;2023-04-22T08:30:30;4.65;;;1.48;;
76196;SDS011;64974;53.144;17.962;2023-04-22T08:32:55;3.30;;;1.33;;
76196;SDS011;64974;53.144;17.962;2023-04-22T08:35:20;7.60;;;1.63;;
76196;SDS011;64974;53.144;17.962;2023-04-22T08:37:46;5.82;;;1.70;;
76196;SDS011;64974;53.144;17.962;2023-04-22T08:40:11;3.47;;;2.47;;
76196;SDS011;64974;53.144;17.962;2023-04-22T08:42:37;4.40;;;1.73;;
76196;SDS011;64974;53.144;17.962;2023-04-22T08:45:03;3.17;;;1.73;;
76196;SDS011;64974;53.144;17.962;2023-04-22T08:49:54;3.17;;;1.75;;
76196;SDS011;64974;53.144;17.962;2023-04-22T08:52:20;2.40;;;1.27;;
76196;SDS011;64974;53.144;17.962;2023-04-22T08:54:46;3.25;;;1.40;;
76196;SDS011;64974;53.144;17.962;2023-04-22T08:57:11;2.90;;;1.40;;
76196;SDS011;64974;53.144;17.962;2023-04-22T08:59:39;3.95;;;1.63;;
76196;SDS011;64974;53.144;17.962;2023-04-22T09:02:05;3.05;;;1.80;;
76196;SDS011;64974;53.144;17.962;2023-04-22T09:06:57;4.00;;;1.90;;
76196;SDS011;64974;53.144;17.962;2023-04-22T09:09:23;4.03;;;1.80;;
76196;SDS011;64974;53.144;17.962;2023-04-22T09:11:48;3.58;;;1.73;;
76196;SDS011;64974;53.144;17.962;2023-04-22T09:14:14;4.25;;;1.77;;
76196;SDS011;64974;53.144;17.962;2023-04-22T09:16:40;6.47;;;2.10;;
76196;SDS011;64974;53.144;17.962;2023-04-22T09:19:12;3.97;;;2.00;;
76196;SDS011;64974;53.144;17.962;2023-04-22T09:21:39;5.05;;;2.22;;
76196;SDS011;64974;53.144;17.962;2023-04-22T09:24:05;5.80;;;2.05;;
76196;SDS011;64974;53.144;17.962;2023-04-22T09:26:38;5.63;;;1.98;;
76196;SDS011;64974;53.144;17.962;2023-04-22T09:29:04;3.95;;;1.92;;
76196;SDS011;64974;53.144;17.962;2023-04-22T09:31:33;3.50;;;1.67;;
76196;SDS011;64974;53.144;17.962;2023-04-22T09:36:25;5.22;;;2.00;;
76196;SDS011;64974;53.144;17.962;2023-04-22T09:38:55;4.60;;;1.88;;
76196;SDS011;64974;53.144;17.962;2023-04-22T09:41:28;4.03;;;2.05;;
76196;SDS011;64974;53.144;17.962;2023-04-22T09:43:56;6.30;;;1.90;;
76196;SDS011;64974;53.144;17.962;2023-04-22T09:46:23;4.20;;;2.15;;
76196;SDS011;64974;53.144;17.962;2023-04-22T09:48:49;4.10;;;1.88;;
76196;SDS011;64974;53.144;17.962;2023-04-22T09:53:41;3.42;;;1.80;;
76196;SDS011;64974;53.144;17.962;2023-04-22T09:56:07;4.38;;;1.80;;
76196;SDS011;64974;53.144;17.962;2023-04-22T09:58:35;3.67;;;1.73;;
76196;SDS011;64974;53.144;17.962;2023-04-22T10:01:02;5.50;;;2.15;;
76196;SDS011;64974;53.144;17.962;2023-04-22T10:03:28;4.20;;;2.40;;
76196;SDS011;64974;53.144;17.962;2023-04-22T10:05:53;3.35;;;2.00;;
76196;SDS011;64974;53.144;17.962;2023-04-22T10:08:18;6.13;;;2.38;;
76196;SDS011;64974;53.144;17.962;2023-04-22T10:13:09;4.30;;;2.13;;
76196;SDS011;64974;53.144;17.962;2023-04-22T10:18:05;4.90;;;1.80;;
76196;SDS011;64974;53.144;17.962;2023-04-22T10:20:32;6.43;;;2.20;;
76196;SDS011;64974;53.144;17.962;2023-04-22T10:23:02;4.50;;;2.20;;
76196;SDS011;64974;53.144;17.962;2023-04-22T10:25:28;3.97;;;2.05;;
76196;SDS011;64974;53.144;17.962;2023-04-22T10:30:26;4.00;;;2.00;;
76196;SDS011;64974;53.144;17.962;2023-04-22T10:32:52;4.97;;;2.10;;
76196;SDS011;64974;53.144;17.962;2023-04-22T10:37:44;5.03;;;2.10;;
76196;SDS011;64974;53.144;17.962;2023-04-22T10:42:38;4.03;;;2.15;;
76196;SDS011;64974;53.144;17.962;2023-04-22T10:45:04;4.53;;;1.92;;
76196;SDS011;64974;53.144;17.962;2023-04-22T10:52:44;4.93;;;1.85;;
76196;SDS011;64974;53.144;17.962;2023-04-22T10:55:11;5.00;;;2.20;;
76196;SDS011;64974;53.144;17.962;2023-04-22T11:00:27;7.03;;;2.45;;
76196;SDS011;64974;53.144;17.962;2023-04-22T11:05:29;4.68;;;2.40;;
76196;SDS011;64974;53.144;17.962;2023-04-22T11:07:59;3.92;;;1.92;;
76196;SDS011;64974;53.144;17.962;2023-04-22T11:10:33;4.20;;;2.40;;
76196;SDS011;64974;53.144;17.962;2023-04-22T11:12:59;5.78;;;1.98;;
76196;SDS011;64974;53.144;17.962;2023-04-22T11:15:27;5.43;;;2.35;;
76196;SDS011;64974;53.144;17.962;2023-04-22T11:17:54;5.80;;;2.30;;
76196;SDS011;64974;53.144;17.962;2023-04-22T11:22:52;11.23;;;2.63;;
76196;SDS011;64974;53.144;17.962;2023-04-22T11:25:19;4.68;;;2.00;;
76196;SDS011;64974;53.144;17.962;2023-04-22T11:27:45;4.10;;;2.22;;
76196;SDS011;64974;53.144;17.962;2023-04-22T11:30:15;8.68;;;2.17;;
76196;SDS011;64974;53.144;17.962;2023-04-22T11:32:42;4.82;;;2.10;;
76196;SDS011;64974;53.144;17.962;2023-04-22T11:35:10;6.80;;;2.30;;
76196;SDS011;64974;53.144;17.962;2023-04-22T11:37:40;4.32;;;2.25;;
76196;SDS011;64974;53.144;17.962;2023-04-22T11:40:14;3.53;;;1.85;;
76196;SDS011;64974;53.144;17.962;2023-04-22T11:42:41;5.72;;;1.88;;
76196;SDS011;64974;53.144;17.962;2023-04-22T11:45:07;4.72;;;2.33;;
76196;SDS011;64974;53.144;17.962;2023-04-22T11:47:33;4.38;;;2.15;;
76196;SDS011;64974;53.144;17.962;2023-04-22T11:49:59;5.25;;;2.10;;
76196;SDS011;64974;53.144;17.962;2023-04-22T11:55:20;6.68;;;2.30;;
76196;SDS011;64974;53.144;17.962;2023-04-22T11:57:52;4.13;;;1.90;;
76196;SDS011;64974;53.144;17.962;2023-04-22T12:00:31;3.45;;;2.00;;
76196;SDS011;64974;53.144;17.962;2023-04-22T12:03:01;3.72;;;1.90;;
76196;SDS011;64974;53.144;17.962;2023-04-22T12:05:37;5.97;;;2.00;;
76196;SDS011;64974;53.144;17.962;2023-04-22T12:08:14;4.43;;;2.10;;
76196;SDS011;64974;53.144;17.962;2023-04-22T12:10:41;5.20;;;2.30;;
76196;SDS011;64974;53.144;17.962;2023-04-22T12:13:09;8.85;;;2.25;;
76196;SDS011;64974;53.144;17.962;2023-04-22T12:15:39;3.58;;;2.20;;
76196;SDS011;64974;53.144;17.962;2023-04-22T12:18:05;5.18;;;2.17;;
76196;SDS011;64974;53.144;17.962;2023-04-22T12:20:35;6.20;;;2.63;;
76196;SDS011;64974;53.144;17.962;2023-04-22T12:23:01;4.57;;;2.35;;
76196;SDS011;64974;53.144;17.962;2023-04-22T12:25:27;4.13;;;2.38;;
76196;SDS011;64974;53.144;17.962;2023-04-22T12:27:53;5.18;;;2.10;;
76196;SDS011;64974;53.144;17.962;2023-04-22T12:30:20;6.07;;;2.88;;
76196;SDS011;64974;53.144;17.962;2023-04-22T12:32:47;4.53;;;2.47;;
76196;SDS011;64974;53.144;17.962;2023-04-22T12:35:12;4.00;;;1.92;;
76196;SDS011;64974;53.144;17.962;2023-04-22T12:37:38;9.02;;;2.65;;
76196;SDS011;64974;53.144;17.962;2023-04-22T12:40:03;5.05;;;2.60;;
76196;SDS011;64974;53.144;17.962;2023-04-22T12:42:30;6.18;;;2.60;;
76196;SDS011;64974;53.144;17.962;2023-04-22T12:44:55;7.65;;;2.50;;
76196;SDS011;64974;53.144;17.962;2023-04-22T12:47:21;5.97;;;2.45;;
76196;SDS011;64974;53.144;17.962;2023-04-22T12:49:46;7.95;;;2.53;;
76196;SDS011;64974;53.144;17.962;2023-04-22T12:52:11;5.03;;;2.33;;
76196;SDS011;64974;53.144;17.962;2023-04-22T12:54:37;4.85;;;2.22;;
76196;SDS011;64974;53.144;17.962;2023-04-22T12:57:02;4.53;;;2.15;;
76196;SDS011;64974;53.144;17.962;2023-04-22T12:59:27;7.05;;;2.40;;
76196;SDS011;64974;53.144;17.962;2023-04-22T13:01:53;5.03;;;2.58;;
76196;SDS011;64974;53.144;17.962;2023-04-22T13:04:21;4.13;;;2.42;;
76196;SDS011;64974;53.144;17.962;2023-04-22T13:06:46;5.57;;;2.30;;
76196;SDS011;64974;53.144;17.962;2023-04-22T13:09:14;19.25;;;4.07;;
76196;SDS011;64974;53.144;17.962;2023-04-22T13:11:40;5.93;;;2.50;;
76196;SDS011;64974;53.144;17.962;2023-04-22T13:14:05;5.28;;;2.60;;
76196;SDS011;64974;53.144;17.962;2023-04-22T13:16:30;5.45;;;2.35;;
76196;SDS011;64974;53.144;17.962;2023-04-22T13:18:56;4.13;;;2.38;;
76196;SDS011;64974;53.144;17.962;2023-04-22T13:21:21;4.75;;;2.50;;
76196;SDS011;64974;53.144;17.962;2023-04-22T13:23:46;3.60;;;2.35;;
76196;SDS011;64974;53.144;17.962;2023-04-22T13:26:12;6.38;;;2.63;;
76196;SDS011;64974;53.144;17.962;2023-04-22T13:28:37;5.57;;;2.30;;
76196;SDS011;64974;53.144;17.962;2023-04-22T13:31:03;3.78;;;2.38;;
76196;SDS011;64974;53.144;17.962;2023-04-22T13:33:28;3.78;;;2.50;;
76196;SDS011;64974;53.144;17.962;2023-04-22T13:35:53;6.25;;;2.22;;
76196;SDS011;64974;53.144;17.962;2023-04-22T13:38:19;4.20;;;2.33;;
76196;SDS011;64974;53.144;17.962;2023-04-22T13:40:44;3.95;;;2.40;;
76196;SDS011;64974;53.144;17.962;2023-04-22T13:43:10;5.88;;;3.20;;
76196;SDS011;64974;53.144;17.962;2023-04-22T13:45:35;4.05;;;2.30;;
76196;SDS011;64974;53.144;17.962;2023-04-22T13:48:01;6.53;;;2.80;;
76196;SDS011;64974;53.144;17.962;2023-04-22T13:50:26;4.70;;;2.22;;
76196;SDS011;64974;53.144;17.962;2023-04-22T13:52:51;6.20;;;2.75;;
76196;SDS011;64974;53.144;17.962;2023-04-22T13:55:17;5.88;;;3.13;;
76196;SDS011;64974;53.144;17.962;2023-04-22T13:57:42;4.13;;;2.28;;
76196;SDS011;64974;53.144;17.962;2023-04-22T14:00:08;6.15;;;2.40;;
76196;SDS011;64974;53.144;17.962;2023-04-22T14:02:34;7.07;;;2.47;;
76196;SDS011;64974;53.144;17.962;2023-04-22T14:04:59;5.03;;;2.33;;
76196;SDS011;64974;53.144;17.962;2023-04-22T14:07:25;4.15;;;2.75;;
76196;SDS011;64974;53.144;17.962;2023-04-22T14:09:50;4.28;;;2.40;;
76196;SDS011;64974;53.144;17.962;2023-04-22T14:12:15;5.10;;;3.00;;
76196;SDS011;64974;53.144;17.962;2023-04-22T14:14:41;6.90;;;3.00;;
76196;SDS011;64974;53.144;17.962;2023-04-22T14:17:06;5.68;;;2.75;;
76196;SDS011;64974;53.144;17.962;2023-04-22T14:19:32;6.15;;;3.17;;
76196;SDS011;64974;53.144;17.962;2023-04-22T14:21:57;9.95;;;5.90;;
76196;SDS011;64974;53.144;17.962;2023-04-22T14:24:23;14.02;;;3.50;;
76196;SDS011;64974;53.144;17.962;2023-04-22T14:26:49;5.97;;;3.28;;
76196;SDS011;64974;53.144;17.962;2023-04-22T14:29:16;5.63;;;3.55;;
76196;SDS011;64974;53.144;17.962;2023-04-22T14:31:41;4.90;;;3.20;;
76196;SDS011;64974;53.144;17.962;2023-04-22T14:34:07;6.72;;;3.58;;
76196;SDS011;64974;53.144;17.962;2023-04-22T14:36:32;5.97;;;3.42;;
76196;SDS011;64974;53.144;17.962;2023-04-22T14:38:57;7.78;;;3.17;;
76196;SDS011;64974;53.144;17.962;2023-04-22T14:41:23;4.82;;;3.25;;
76196;SDS011;64974;53.144;17.962;2023-04-22T14:43:48;7.03;;;4.30;;
76196;SDS011;64974;53.144;17.962;2023-04-22T14:46:14;15.13;;;5.03;;
76196;SDS011;64974;53.144;17.962;2023-04-22T14:48:39;6.15;;;4.18;;
76196;SDS011;64974;53.144;17.962;2023-04-22T14:51:04;8.20;;;4.07;;
76196;SDS011;64974;53.144;17.962;2023-04-22T14:53:38;5.20;;;3.92;;
76196;SDS011;64974;53.144;17.962;2023-04-22T14:56:05;5.50;;;3.90;;
76196;SDS011;64974;53.144;17.962;2023-04-22T14:58:31;6.25;;;4.97;;
76196;SDS011;64974;53.144;17.962;2023-04-22T15:00:57;7.07;;;4.15;;
76196;SDS011;64974;53.144;17.962;2023-04-22T15:03:23;13.32;;;5.20;;
76196;SDS011;64974;53.144;17.962;2023-04-22T15:05:49;14.18;;;4.75;;
76196;SDS011;64974;53.144;17.962;2023-04-22T15:08:16;9.15;;;5.13;;
76196;SDS011;64974;53.144;17.962;2023-04-22T15:10:41;9.38;;;4.70;;